createdAt,value
2018-12-03T00:02:01.310Z,6.50
2018-12-03T00:04:29.795Z,6.50
2018-12-03T00:06:58.323Z,6.80
2018-12-03T00:09:26.874Z,6.70
2018-12-03T00:11:55.334Z,6.20
2018-12-03T00:14:23.814Z,6.60
2018-12-03T00:16:52.346Z,6.60
2018-12-03T00:19:20.823Z,6.70
2018-12-03T00:21:49.328Z,6.60
2018-12-03T00:24:17.819Z,6.90
2018-12-03T00:26:46.328Z,6.60
2018-12-03T00:31:43.082Z,6.80
2018-12-03T00:34:11.630Z,6.80
2018-12-03T00:36:40.153Z,6.80
2018-12-03T00:39:08.984Z,6.80
2018-12-03T00:41:37.504Z,6.90
2018-12-03T00:44:06.122Z,7.00
2018-12-03T00:46:34.618Z,7.00
2018-12-03T00:49:03.105Z,7.00
2018-12-03T00:51:31.588Z,7.20
2018-12-03T00:54:00.065Z,7.10
2018-12-03T00:56:28.534Z,7.10
2018-12-03T01:01:25.185Z,7.20
2018-12-03T01:03:53.650Z,7.20
2018-12-03T01:06:22.139Z,7.30
2018-12-03T01:08:50.603Z,7.20
2018-12-03T01:13:47.204Z,7.20
2018-12-03T01:16:15.701Z,7.50
2018-12-03T01:18:44.187Z,7.10
2018-12-03T01:21:12.644Z,7.30
2018-12-03T01:23:41.100Z,7.20
2018-12-03T01:26:09.577Z,7.30
2018-12-03T01:28:38.034Z,7.30
2018-12-03T01:31:06.519Z,7.20
2018-12-03T01:33:34.969Z,7.20
2018-12-03T01:36:03.453Z,7.20
2018-12-03T01:38:31.927Z,7.20
2018-12-03T01:41:00.406Z,7.20
2018-12-03T01:43:28.875Z,7.20
2018-12-03T01:45:57.335Z,7.30
2018-12-03T01:48:25.791Z,7.40
2018-12-03T01:50:54.269Z,7.30
2018-12-03T01:53:22.724Z,7.30
2018-12-03T01:55:51.346Z,7.20
2018-12-03T01:58:19.797Z,7.20
2018-12-03T02:00:48.245Z,7.20
2018-12-03T02:03:16.777Z,7.20
2018-12-03T02:05:45.267Z,7.30
2018-12-03T02:08:13.718Z,7.20
2018-12-03T02:10:42.193Z,7.20
2018-12-03T02:13:10.675Z,7.20
2018-12-03T02:15:39.141Z,7.30
2018-12-03T02:18:07.645Z,7.30
2018-12-03T02:20:36.132Z,7.30
2018-12-03T02:23:04.647Z,7.40
2018-12-03T02:25:33.145Z,7.50
2018-12-03T02:28:01.639Z,7.50
2018-12-03T02:30:30.108Z,7.40
2018-12-03T02:32:58.589Z,7.50
2018-12-03T02:35:27.079Z,7.50
2018-12-03T02:37:55.547Z,7.50
2018-12-03T02:40:24.016Z,7.40
2018-12-03T02:42:52.496Z,7.40
2018-12-03T02:45:20.963Z,7.40
2018-12-03T02:47:49.453Z,7.40
2018-12-03T02:50:17.905Z,7.40
2018-12-03T02:52:46.393Z,7.50
2018-12-03T02:55:15.108Z,7.50
2018-12-03T02:57:43.569Z,7.50
2018-12-03T03:00:13.503Z,7.60
2018-12-03T03:02:42.516Z,7.60
2018-12-03T03:05:12.119Z,7.60
2018-12-03T03:07:40.608Z,7.60
2018-12-03T03:10:11.320Z,7.60
2018-12-03T03:12:39.999Z,7.50
2018-12-03T03:15:10.109Z,7.40
2018-12-03T03:17:39.017Z,7.40
2018-12-03T03:20:09.976Z,7.50
2018-12-03T03:22:38.451Z,7.60
2018-12-03T03:25:08.046Z,7.50
2018-12-03T03:27:36.722Z,7.50
2018-12-03T03:30:08.026Z,7.50
2018-12-03T03:32:36.496Z,7.60
2018-12-03T03:35:05.383Z,7.60
2018-12-03T03:37:33.894Z,7.70
2018-12-03T03:40:02.425Z,7.60
2018-12-03T03:42:30.900Z,7.50
2018-12-03T03:44:59.425Z,7.50
2018-12-03T03:47:27.899Z,7.50
2018-12-03T03:49:56.378Z,7.40
2018-12-03T03:52:24.918Z,7.40
2018-12-03T03:54:53.382Z,7.20
2018-12-03T03:57:28.538Z,7.20
2018-12-03T03:59:57.017Z,7.20
2018-12-03T04:02:25.609Z,7.20
2018-12-03T04:04:54.080Z,7.30
2018-12-03T04:07:22.585Z,7.30
2018-12-03T04:09:51.054Z,7.30
2018-12-03T04:12:19.528Z,7.40
2018-12-03T04:14:47.979Z,7.40
2018-12-03T04:17:16.442Z,7.40
2018-12-03T04:19:44.947Z,7.40
2018-12-03T04:22:13.464Z,7.70
2018-12-03T04:24:41.957Z,7.60
2018-12-03T04:27:10.433Z,7.60
2018-12-03T04:29:38.920Z,7.60
2018-12-03T04:32:07.422Z,7.60
2018-12-03T04:34:35.886Z,7.50
2018-12-03T04:37:04.414Z,7.70
2018-12-03T04:39:32.896Z,7.70
2018-12-03T04:42:01.385Z,7.90
2018-12-03T04:44:29.884Z,8.10
2018-12-03T04:46:58.384Z,8.30
2018-12-03T04:49:26.861Z,8.50
2018-12-03T04:51:55.355Z,8.80
2018-12-03T04:54:23.842Z,8.80
2018-12-03T04:56:52.318Z,8.90
2018-12-03T04:59:20.792Z,8.90
2018-12-03T05:01:49.279Z,9.00
2018-12-03T05:04:17.785Z,9.00
2018-12-03T05:06:46.261Z,9.10
2018-12-03T05:09:15.022Z,9.10
2018-12-03T05:11:44.407Z,9.20
2018-12-03T05:14:12.867Z,9.20
2018-12-03T05:16:41.343Z,9.20
2018-12-03T05:19:09.813Z,9.20
2018-12-03T05:21:38.448Z,9.10
2018-12-03T05:24:06.981Z,9.10
2018-12-03T05:26:35.447Z,9.10
2018-12-03T05:29:04.037Z,9.10
2018-12-03T05:31:32.527Z,9.00
2018-12-03T05:34:01.029Z,9.00
2018-12-03T05:36:29.551Z,9.10
2018-12-03T05:38:58.037Z,9.20
2018-12-03T05:41:26.494Z,9.20
2018-12-03T05:43:54.977Z,9.20
2018-12-03T05:46:23.455Z,9.20
2018-12-03T05:48:51.980Z,9.10
2018-12-03T05:51:20.478Z,9.10
2018-12-03T05:53:48.938Z,9.20
2018-12-03T05:56:17.454Z,9.20
2018-12-03T05:58:45.921Z,9.20
2018-12-03T06:01:14.411Z,9.20
2018-12-03T06:03:42.894Z,9.20
2018-12-03T06:06:11.384Z,9.20
2018-12-03T06:08:39.872Z,9.00
2018-12-03T06:11:08.345Z,9.10
2018-12-03T06:13:36.860Z,9.10
2018-12-03T06:16:05.372Z,9.10
2018-12-03T06:18:33.860Z,9.20
2018-12-03T06:21:02.394Z,9.20
2018-12-03T06:23:30.898Z,9.20
2018-12-03T06:25:59.420Z,9.30
2018-12-03T06:28:27.878Z,9.30
2018-12-03T06:30:56.357Z,9.40
2018-12-03T06:33:24.840Z,9.30
2018-12-03T06:35:53.314Z,9.30
2018-12-03T06:38:21.785Z,9.30
2018-12-03T06:40:50.280Z,9.30
2018-12-03T06:43:18.774Z,9.20
2018-12-03T06:45:47.254Z,9.20
2018-12-03T06:48:18.433Z,9.30
2018-12-03T06:50:46.937Z,9.20
2018-12-03T06:53:16.703Z,9.20
2018-12-03T06:55:45.216Z,9.20
2018-12-03T06:58:14.446Z,9.20
2018-12-03T07:00:44.485Z,9.20
2018-12-03T07:03:13.018Z,9.20
2018-12-03T07:05:41.509Z,9.10
2018-12-03T07:08:10.413Z,9.10
2018-12-03T07:10:39.131Z,9.00
2018-12-03T07:13:10.493Z,9.00
2018-12-03T07:15:40.840Z,8.80
2018-12-03T07:18:10.114Z,8.70
2018-12-03T07:20:38.557Z,8.70
2018-12-03T07:23:07.071Z,8.60
2018-12-03T07:25:35.594Z,8.50
2018-12-03T07:28:04.056Z,8.40
2018-12-03T07:30:32.531Z,8.40
2018-12-03T07:33:01.022Z,8.50
2018-12-03T07:35:29.481Z,8.40
2018-12-03T07:37:57.944Z,8.40
2018-12-03T07:40:26.419Z,8.30
2018-12-03T07:42:54.908Z,8.40
2018-12-03T07:45:24.434Z,8.40
2018-12-03T07:47:52.950Z,8.40
2018-12-03T07:50:23.316Z,8.40
2018-12-03T07:52:51.835Z,8.50
2018-12-03T07:55:23.428Z,8.60
2018-12-03T07:57:57.068Z,8.60
2018-12-03T08:00:28.919Z,8.80
2018-12-03T08:02:57.418Z,9.00
2018-12-03T08:05:25.920Z,8.80
2018-12-03T08:07:54.432Z,8.90
2018-12-03T08:10:22.929Z,9.00
2018-12-03T08:12:51.758Z,9.10
2018-12-03T08:15:20.504Z,9.50
2018-12-03T08:17:51.910Z,9.40
2018-12-03T08:20:22.816Z,9.60
2018-12-03T08:22:53.258Z,9.70
2018-12-03T08:25:22.886Z,9.70
2018-12-03T08:27:51.384Z,9.80
2018-12-03T08:30:19.906Z,9.90
2018-12-03T08:32:48.397Z,9.90
2018-12-03T08:35:17.847Z,10.00
2018-12-03T08:37:46.385Z,10.10
2018-12-03T08:40:18.186Z,10.10
2018-12-03T08:42:51.036Z,10.20
2018-12-03T08:45:20.189Z,10.30
2018-12-03T08:47:48.928Z,10.30
2018-12-03T08:50:20.692Z,10.40
2018-12-03T08:52:49.277Z,10.40
2018-12-03T08:55:17.807Z,10.40
2018-12-03T08:57:46.300Z,10.50
2018-12-03T09:00:18.687Z,10.50
2018-12-03T09:02:57.270Z,10.60
2018-12-03T09:05:30.116Z,10.60
2018-12-03T09:07:58.624Z,10.70
2018-12-03T09:10:27.135Z,10.80
2018-12-03T09:12:55.690Z,10.80
2018-12-03T09:15:24.209Z,10.90
2018-12-03T09:17:52.748Z,10.90
2018-12-03T09:20:21.234Z,10.90
2018-12-03T09:22:49.701Z,10.90
2018-12-03T09:25:25.930Z,11.00
2018-12-03T09:27:54.406Z,11.10
2018-12-03T09:30:27.717Z,11.10
2018-12-03T09:32:51.396Z,11.10
2018-12-03T09:35:19.903Z,11.20
2018-12-03T09:37:48.383Z,11.40
2018-12-03T09:40:21.580Z,11.40
2018-12-03T09:42:50.038Z,11.40
2018-12-03T09:45:19.038Z,11.50
2018-12-03T09:47:48.139Z,11.60
2018-12-03T09:50:33.502Z,11.60
2018-12-03T09:53:02.004Z,11.70
2018-12-03T09:55:32.483Z,11.70
2018-12-03T09:58:07.565Z,11.70
2018-12-03T10:00:36.097Z,11.70
2018-12-03T10:03:09.129Z,11.50
2018-12-03T10:05:40.149Z,11.60
2018-12-03T10:08:08.603Z,11.60
2018-12-03T10:10:37.057Z,11.80
2018-12-03T10:13:08.144Z,11.80
2018-12-03T10:15:36.637Z,12.10
2018-12-03T10:18:05.498Z,12.20
2018-12-03T10:20:33.982Z,12.30
2018-12-03T10:23:02.476Z,12.40
2018-12-03T10:25:31.060Z,12.50
2018-12-03T10:28:02.880Z,12.50
2018-12-03T10:30:31.354Z,12.60
2018-12-03T10:32:59.870Z,12.50
2018-12-03T10:35:34.049Z,12.60
2018-12-03T10:38:10.033Z,12.60
2018-12-03T10:40:41.781Z,12.60
2018-12-03T10:43:11.250Z,12.50
2018-12-03T10:45:39.737Z,12.50
2018-12-03T10:48:08.236Z,12.60
2018-12-03T10:50:36.761Z,12.70
2018-12-03T10:53:05.740Z,12.80
2018-12-03T10:55:35.075Z,13.00
2018-12-03T10:58:03.590Z,12.90
2018-12-03T11:01:39.954Z,13.00
2018-12-03T11:04:13.739Z,13.10
2018-12-03T11:06:42.235Z,13.10
2018-12-03T11:09:10.726Z,13.00
2018-12-03T11:11:39.319Z,13.00
2018-12-03T11:14:08.344Z,13.00
2018-12-03T11:17:04.612Z,13.00
2018-12-03T11:19:32.095Z,13.10
2018-12-03T11:21:59.723Z,13.20
2018-12-03T11:24:27.213Z,13.20
2018-12-03T11:26:55.348Z,13.10
2018-12-03T11:29:23.027Z,13.10
2018-12-03T11:31:50.795Z,13.00
2018-12-03T11:34:20.330Z,13.00
2018-12-03T11:36:47.877Z,13.10
2018-12-03T11:39:15.460Z,13.10
2018-12-03T11:41:42.947Z,13.10
2018-12-03T11:44:10.510Z,13.20
2018-12-03T11:46:38.156Z,13.30
2018-12-03T11:49:05.784Z,13.30
2018-12-03T11:51:33.301Z,13.30
2018-12-03T11:54:00.793Z,13.40
2018-12-03T11:56:28.294Z,13.50
2018-12-03T11:58:55.781Z,13.50
2018-12-03T12:01:23.280Z,13.80
2018-12-03T12:03:50.836Z,13.60
2018-12-03T12:06:18.343Z,13.80
2018-12-03T12:08:45.839Z,14.00
2018-12-03T12:11:13.329Z,14.10
2018-12-03T12:13:40.814Z,14.30
2018-12-03T12:16:08.616Z,14.50
2018-12-03T12:18:36.124Z,14.90
2018-12-03T12:21:03.767Z,15.40
2018-12-03T12:25:58.877Z,15.50
2018-12-03T12:28:26.700Z,15.70
2018-12-03T12:30:54.184Z,15.30
2018-12-03T12:33:21.688Z,15.30
2018-12-03T12:35:49.188Z,15.10
2018-12-03T12:38:16.686Z,14.70
2018-12-03T12:40:44.188Z,14.80
2018-12-03T12:43:11.676Z,15.00
2018-12-03T12:45:39.184Z,14.70
2018-12-03T12:48:06.774Z,15.00
2018-12-03T12:50:34.372Z,14.90
2018-12-03T12:53:01.874Z,14.80
2018-12-03T12:55:29.359Z,14.80
2018-12-03T12:57:56.867Z,14.70
2018-12-03T13:00:24.360Z,14.50
2018-12-03T13:02:51.859Z,14.50
2018-12-03T13:05:19.413Z,14.70
2018-12-03T13:07:46.905Z,14.60
2018-12-03T13:10:14.403Z,14.50
2018-12-03T13:12:41.975Z,14.30
2018-12-03T13:15:09.559Z,14.30
2018-12-03T13:17:37.072Z,14.40
2018-12-03T13:20:07.962Z,14.30
2018-12-03T13:22:35.523Z,14.30
2018-12-03T13:25:03.177Z,14.30
2018-12-03T13:27:30.787Z,14.20
2018-12-03T13:29:58.315Z,14.20
2018-12-03T13:32:25.818Z,14.10
2018-12-03T13:34:53.451Z,14.10
2018-12-03T13:37:20.951Z,14.00
2018-12-03T13:39:48.437Z,14.00
2018-12-03T13:42:15.937Z,14.00
2018-12-03T13:44:44.165Z,13.90
2018-12-03T13:47:11.862Z,13.80
2018-12-03T13:49:39.348Z,13.80
2018-12-03T13:52:06.854Z,13.70
2018-12-03T13:54:34.365Z,13.70
2018-12-03T13:57:01.861Z,13.70
2018-12-03T13:59:29.355Z,13.80
2018-12-03T14:01:56.876Z,13.70
2018-12-03T14:04:24.485Z,13.60
2018-12-03T14:06:52.113Z,13.60
2018-12-03T14:09:19.673Z,13.50
2018-12-03T14:11:47.281Z,13.40
2018-12-03T14:14:14.860Z,13.40
2018-12-03T14:16:42.887Z,13.30
2018-12-03T14:19:10.446Z,13.30
2018-12-03T14:21:37.944Z,13.50
2018-12-03T14:24:05.997Z,13.30
2018-12-03T14:26:33.518Z,13.30
2018-12-03T14:29:01.079Z,13.40
2018-12-03T14:31:28.629Z,13.30
2018-12-03T14:33:56.138Z,13.10
2018-12-03T14:38:51.127Z,13.20
2018-12-03T14:41:19.077Z,13.20
2018-12-03T14:43:46.681Z,13.30
2018-12-03T14:46:14.245Z,13.20
2018-12-03T14:48:41.762Z,13.20
2018-12-03T14:51:10.249Z,13.20
2018-12-03T14:53:37.753Z,13.10
2018-12-03T14:56:05.316Z,13.10
2018-12-03T14:58:32.823Z,13.10
2018-12-03T15:01:00.323Z,12.90
2018-12-03T15:03:27.821Z,12.80
2018-12-03T15:05:55.341Z,12.70
2018-12-03T15:08:22.844Z,12.40
2018-12-03T15:10:50.363Z,12.80
2018-12-03T15:13:17.845Z,12.80
2018-12-03T15:15:45.350Z,12.80
2018-12-03T15:18:12.852Z,12.80
2018-12-03T15:20:40.355Z,13.00
2018-12-03T15:25:35.370Z,13.10
2018-12-03T15:28:02.867Z,13.00
2018-12-03T15:30:30.357Z,13.30
2018-12-03T15:32:57.859Z,13.50
2018-12-03T15:35:25.383Z,13.20
2018-12-03T15:37:52.993Z,13.20
2018-12-03T15:40:20.522Z,13.30
2018-12-03T15:42:48.021Z,13.50
2018-12-03T15:45:15.550Z,13.30
2018-12-03T15:47:43.150Z,13.30
2018-12-03T15:55:05.969Z,13.30
2018-12-03T15:57:33.464Z,13.30
2018-12-03T16:00:00.992Z,13.10
2018-12-03T16:02:28.538Z,12.90
2018-12-03T16:04:56.100Z,13.10
2018-12-03T16:07:23.627Z,13.20
2018-12-03T16:09:51.123Z,13.20
2018-12-03T16:12:18.646Z,13.00
2018-12-03T16:14:46.172Z,12.70
2018-12-03T16:17:13.682Z,12.70
2018-12-03T16:19:41.208Z,13.00
2018-12-03T16:22:08.737Z,12.70
2018-12-03T16:24:36.254Z,12.90
2018-12-03T16:27:04.538Z,12.60
2018-12-03T16:29:32.040Z,12.70
2018-12-03T16:31:59.542Z,12.60
2018-12-03T16:34:27.086Z,12.40
2018-12-03T16:36:54.609Z,12.30
2018-12-03T16:39:22.132Z,12.70
2018-12-03T16:41:49.664Z,12.60
2018-12-03T16:44:17.180Z,12.00
2018-12-03T16:46:44.723Z,12.50
2018-12-03T16:49:12.223Z,12.30
2018-12-03T16:51:39.745Z,12.40
2018-12-03T16:54:07.257Z,12.70
2018-12-03T16:59:02.305Z,12.50
2018-12-03T17:03:57.318Z,12.30
2018-12-03T17:06:24.927Z,12.50
2018-12-03T17:08:52.469Z,12.60
2018-12-03T17:13:47.555Z,12.30
2018-12-03T17:16:15.155Z,12.50
2018-12-03T17:18:42.701Z,12.30
2018-12-03T17:21:10.623Z,12.40
2018-12-03T17:26:05.789Z,12.30
2018-12-03T17:28:33.392Z,13.20
2018-12-03T17:31:01.057Z,12.10
2018-12-03T17:33:29.038Z,12.30
2018-12-03T17:35:56.587Z,12.50
2018-12-03T17:43:19.162Z,12.20
2018-12-03T17:45:46.892Z,12.20
2018-12-03T17:48:14.598Z,12.00
2018-12-03T17:50:42.106Z,12.00
2018-12-03T17:53:09.657Z,11.60
2018-12-03T17:55:37.284Z,12.20
2018-12-03T17:58:05.520Z,11.50
2018-12-03T18:00:33.041Z,11.80
2018-12-03T18:03:00.561Z,11.70
2018-12-03T18:05:29.443Z,12.00
2018-12-03T18:07:57.622Z,11.60
2018-12-03T18:10:26.027Z,11.70
2018-12-03T18:12:54.892Z,11.40
2018-12-03T18:15:22.538Z,11.80
2018-12-03T18:17:50.076Z,11.40
2018-12-03T18:20:17.671Z,11.70
2018-12-03T18:22:45.234Z,11.90
2018-12-03T18:27:41.921Z,12.20
2018-12-03T18:30:09.976Z,12.00
2018-12-03T18:32:37.505Z,12.10
2018-12-03T18:35:06.415Z,12.10
2018-12-03T18:37:34.027Z,12.60
2018-12-03T18:40:01.575Z,12.30
2018-12-03T18:42:30.016Z,12.40
2018-12-03T18:44:58.163Z,12.40
2018-12-03T18:47:26.641Z,12.30
2018-12-03T18:49:54.364Z,12.30
2018-12-03T18:52:21.968Z,12.20
2018-12-03T18:54:49.499Z,11.90
2018-12-03T18:57:17.083Z,12.20
2018-12-03T18:59:44.613Z,12.30
2018-12-03T19:02:13.398Z,12.50
2018-12-03T19:04:41.702Z,12.30
2018-12-03T19:07:09.262Z,12.40
2018-12-03T19:09:39.801Z,12.50
2018-12-03T19:12:07.369Z,12.40
2018-12-03T19:14:34.913Z,12.30
2018-12-03T19:17:03.630Z,12.10
2018-12-03T19:19:31.735Z,12.20
2018-12-03T19:22:00.003Z,12.10
2018-12-03T19:24:29.386Z,12.20
2018-12-03T19:26:58.555Z,12.00
2018-12-03T19:29:27.047Z,11.90
2018-12-03T19:31:54.665Z,11.70
2018-12-03T19:34:22.284Z,11.60
2018-12-03T19:36:53.003Z,11.60
2018-12-03T19:39:20.532Z,11.20
2018-12-03T19:41:48.056Z,11.40
2018-12-03T19:44:16.223Z,11.60
2018-12-03T19:46:44.691Z,11.40
2018-12-03T19:49:13.809Z,11.40
2018-12-03T19:51:43.059Z,11.20
2018-12-03T19:54:12.159Z,11.40
2018-12-03T19:56:40.960Z,11.30
2018-12-03T19:59:12.193Z,11.10
2018-12-03T20:01:39.712Z,11.10
2018-12-03T20:04:13.194Z,11.10
2018-12-03T20:06:41.420Z,11.30
2018-12-03T20:09:09.909Z,11.10
2018-12-03T20:11:37.469Z,11.20
2018-12-03T20:16:37.209Z,11.30
2018-12-03T20:19:04.755Z,10.80
2018-12-03T20:21:36.520Z,10.70
2018-12-03T20:24:04.148Z,11.00
2018-12-03T20:26:32.041Z,11.00
2018-12-03T20:28:59.606Z,10.80
2018-12-03T20:31:28.297Z,10.80
2018-12-03T20:33:55.897Z,10.70
2018-12-03T20:36:24.132Z,10.60
2018-12-03T20:38:51.792Z,10.70
2018-12-03T20:41:19.346Z,10.50
2018-12-03T20:43:48.103Z,10.30
2018-12-03T20:46:15.708Z,10.70
2018-12-03T20:48:43.237Z,10.10
2018-12-03T20:51:12.429Z,10.30
2018-12-03T20:53:42.538Z,10.40
2018-12-03T20:56:10.822Z,10.50
2018-12-03T20:58:40.676Z,10.40
2018-12-03T21:01:09.082Z,9.80
2018-12-03T21:03:37.397Z,10.10
2018-12-03T21:06:04.916Z,10.30
2018-12-03T21:08:32.809Z,9.90
2018-12-03T21:11:00.480Z,10.20
2018-12-03T21:13:29.904Z,11.00
2018-12-03T21:16:00.460Z,11.10
2018-12-03T21:18:28.830Z,11.40
2018-12-03T21:20:58.946Z,10.60
2018-12-03T21:23:30.380Z,11.80
2018-12-03T21:25:57.928Z,11.90
2018-12-03T21:28:26.444Z,11.90
2018-12-03T21:30:53.993Z,11.90
2018-12-03T21:33:22.251Z,11.50
2018-12-03T21:35:49.776Z,11.40
2018-12-03T21:40:46.059Z,11.00
2018-12-03T21:43:14.936Z,10.80
2018-12-03T21:45:45.427Z,11.10
2018-12-03T21:48:12.975Z,10.90
2018-12-03T21:50:41.267Z,10.80
2018-12-03T21:53:09.966Z,10.90
2018-12-03T21:55:37.502Z,10.80
2018-12-03T21:58:05.479Z,10.70
2018-12-03T22:00:34.797Z,10.90
2018-12-03T22:03:02.403Z,10.70
2018-12-03T22:05:29.939Z,10.80
2018-12-03T22:07:57.491Z,10.70
2018-12-03T22:10:25.057Z,10.80
2018-12-03T22:12:53.779Z,10.90
2018-12-03T22:15:22.784Z,11.20
2018-12-03T22:17:50.335Z,11.10
2018-12-03T22:20:17.861Z,11.10
2018-12-03T22:22:45.373Z,11.50
2018-12-03T22:25:12.932Z,11.20
2018-12-03T22:27:40.452Z,11.30
2018-12-03T22:30:08.062Z,11.50
2018-12-03T22:32:35.582Z,11.80
2018-12-03T22:35:03.114Z,11.40
2018-12-03T22:37:30.659Z,11.30
2018-12-03T22:39:58.189Z,11.40
2018-12-03T22:42:25.715Z,11.50
2018-12-03T22:44:54.094Z,11.70
2018-12-03T22:47:21.678Z,11.50
2018-12-03T22:49:49.211Z,11.70
2018-12-03T22:52:16.727Z,11.40
2018-12-03T22:54:44.225Z,11.50
2018-12-03T22:57:11.729Z,11.40
2018-12-03T22:59:39.254Z,11.50
2018-12-03T23:02:07.047Z,11.40
2018-12-03T23:04:36.542Z,11.60
2018-12-03T23:07:04.071Z,11.70
2018-12-03T23:09:31.578Z,11.50
2018-12-03T23:11:59.078Z,11.40
2018-12-03T23:14:26.643Z,11.20
2018-12-03T23:16:54.141Z,11.30
2018-12-03T23:21:49.249Z,11.10
2018-12-03T23:24:16.754Z,10.60
2018-12-03T23:26:44.235Z,11.10
2018-12-03T23:29:11.715Z,11.20
2018-12-03T23:31:39.212Z,11.10
2018-12-03T23:34:06.693Z,10.60
2018-12-03T23:36:34.185Z,9.50
2018-12-03T23:39:01.669Z,9.00
2018-12-03T23:41:29.180Z,9.20
2018-12-03T23:43:56.784Z,9.30
2018-12-03T23:46:25.045Z,8.80
2018-12-03T23:48:52.533Z,9.30
2018-12-03T23:51:20.021Z,9.00
2018-12-03T23:53:47.508Z,8.80
2018-12-03T23:56:15.073Z,8.20
2018-12-03T23:58:42.555Z,8.80
